sensor_id;sensor_type;location;lat;lon;timestamp;P1;durP1;ratioP1;P2;durP2;ratioP2
73142;SDS011;61343;53.694;9.988;2022-10-19T00:01:00;8.00;;;1.50;;
73142;SDS011;61343;53.694;9.988;2022-10-19T00:03:27;6.75;;;1.40;;
73142;SDS011;61343;53.694;9.988;2022-10-19T00:05:52;6.93;;;1.50;;
73142;SDS011;61343;53.694;9.988;2022-10-19T00:08:17;5.27;;;1.40;;
73142;SDS011;61343;53.694;9.988;2022-10-19T00:10:43;8.33;;;1.57;;
73142;SDS011;61343;53.694;9.988;2022-10-19T00:13:08;8.15;;;1.40;;
73142;SDS011;61343;53.694;9.988;2022-10-19T00:15:36;12.00;;;2.07;;
73142;SDS011;61343;53.694;9.988;2022-10-19T00:18:03;8.83;;;1.50;;
73142;SDS011;61343;53.694;9.988;2022-10-19T00:20:28;6.97;;;1.63;;
73142;SDS011;61343;53.694;9.988;2022-10-19T00:22:53;7.00;;;1.70;;
73142;SDS011;61343;53.694;9.988;2022-10-19T00:25:18;14.47;;;1.60;;
73142;SDS011;61343;53.694;9.988;2022-10-19T00:27:44;8.17;;;1.40;;
73142;SDS011;61343;53.694;9.988;2022-10-19T00:30:09;6.20;;;1.63;;
73142;SDS011;61343;53.694;9.988;2022-10-19T00:32:34;9.37;;;1.83;;
73142;SDS011;61343;53.694;9.988;2022-10-19T00:35:00;7.47;;;1.53;;
73142;SDS011;61343;53.694;9.988;2022-10-19T00:37:28;7.00;;;1.30;;
73142;SDS011;61343;53.694;9.988;2022-10-19T00:39:53;7.53;;;1.70;;
73142;SDS011;61343;53.694;9.988;2022-10-19T00:42:18;5.40;;;1.50;;
73142;SDS011;61343;53.694;9.988;2022-10-19T00:47:12;5.83;;;1.50;;
73142;SDS011;61343;53.694;9.988;2022-10-19T00:49:38;5.55;;;1.40;;
73142;SDS011;61343;53.694;9.988;2022-10-19T00:52:08;7.50;;;1.70;;
73142;SDS011;61343;53.694;9.988;2022-10-19T00:54:37;7.13;;;1.75;;
73142;SDS011;61343;53.694;9.988;2022-10-19T00:57:04;7.75;;;1.50;;
73142;SDS011;61343;53.694;9.988;2022-10-19T00:59:31;10.13;;;1.67;;
73142;SDS011;61343;53.694;9.988;2022-10-19T01:01:58;6.13;;;1.45;;
73142;SDS011;61343;53.694;9.988;2022-10-19T01:04:25;9.57;;;1.52;;
73142;SDS011;61343;53.694;9.988;2022-10-19T01:06:52;6.82;;;1.30;;
73142;SDS011;61343;53.694;9.988;2022-10-19T01:09:18;7.33;;;1.80;;
73142;SDS011;61343;53.694;9.988;2022-10-19T01:11:50;10.27;;;1.50;;
73142;SDS011;61343;53.694;9.988;2022-10-19T01:28:49;6.20;;;1.30;;
73142;SDS011;61343;53.694;9.988;2022-10-19T01:31:33;6.00;;;1.20;;
73142;SDS011;61343;53.694;9.988;2022-10-19T01:36:40;5.80;;;1.13;;
73142;SDS011;61343;53.694;9.988;2022-10-19T01:44:25;10.05;;;1.80;;
73142;SDS011;61343;53.694;9.988;2022-10-19T01:47:03;6.80;;;1.08;;
73142;SDS011;61343;53.694;9.988;2022-10-19T01:52:02;9.57;;;1.40;;
73142;SDS011;61343;53.694;9.988;2022-10-19T01:54:33;8.52;;;1.10;;
73142;SDS011;61343;53.694;9.988;2022-10-19T01:57:03;6.15;;;1.10;;
73142;SDS011;61343;53.694;9.988;2022-10-19T01:59:31;5.97;;;1.10;;
73142;SDS011;61343;53.694;9.988;2022-10-19T02:01:57;5.95;;;1.08;;
73142;SDS011;61343;53.694;9.988;2022-10-19T02:04:23;4.80;;;1.00;;
73142;SDS011;61343;53.694;9.988;2022-10-19T02:06:51;10.15;;;1.10;;
73142;SDS011;61343;53.694;9.988;2022-10-19T02:09:17;9.55;;;1.55;;
73142;SDS011;61343;53.694;9.988;2022-10-19T02:11:48;5.30;;;1.10;;
73142;SDS011;61343;53.694;9.988;2022-10-19T02:14:17;4.30;;;1.27;;
73142;SDS011;61343;53.694;9.988;2022-10-19T02:16:48;4.40;;;1.10;;
73142;SDS011;61343;53.694;9.988;2022-10-19T02:19:16;7.68;;;1.20;;
73142;SDS011;61343;53.694;9.988;2022-10-19T02:21:43;7.15;;;1.67;;
73142;SDS011;61343;53.694;9.988;2022-10-19T02:24:09;4.33;;;0.93;;
73142;SDS011;61343;53.694;9.988;2022-10-19T02:26:34;6.63;;;1.30;;
73142;SDS011;61343;53.694;9.988;2022-10-19T02:28:59;12.73;;;1.70;;
73142;SDS011;61343;53.694;9.988;2022-10-19T02:31:25;6.97;;;1.30;;
73142;SDS011;61343;53.694;9.988;2022-10-19T02:33:51;4.53;;;1.23;;
73142;SDS011;61343;53.694;9.988;2022-10-19T02:36:17;8.30;;;1.40;;
73142;SDS011;61343;53.694;9.988;2022-10-19T02:38:42;7.97;;;1.30;;
73142;SDS011;61343;53.694;9.988;2022-10-19T02:41:17;6.43;;;1.25;;
73142;SDS011;61343;53.694;9.988;2022-10-19T02:43:48;9.07;;;1.10;;
73142;SDS011;61343;53.694;9.988;2022-10-19T02:46:17;6.93;;;1.25;;
73142;SDS011;61343;53.694;9.988;2022-10-19T02:48:52;7.67;;;1.23;;
73142;SDS011;61343;53.694;9.988;2022-10-19T02:51:29;6.00;;;1.40;;
73142;SDS011;61343;53.694;9.988;2022-10-19T02:53:59;7.28;;;1.67;;
73142;SDS011;61343;53.694;9.988;2022-10-19T02:56:24;4.87;;;1.03;;
73142;SDS011;61343;53.694;9.988;2022-10-19T02:58:50;5.97;;;1.10;;
73142;SDS011;61343;53.694;9.988;2022-10-19T03:01:15;10.00;;;1.30;;
73142;SDS011;61343;53.694;9.988;2022-10-19T03:03:40;10.87;;;1.63;;
73142;SDS011;61343;53.694;9.988;2022-10-19T03:06:05;10.87;;;1.30;;
73142;SDS011;61343;53.694;9.988;2022-10-19T03:08:31;10.07;;;1.80;;
73142;SDS011;61343;53.694;9.988;2022-10-19T03:10:59;7.87;;;1.10;;
73142;SDS011;61343;53.694;9.988;2022-10-19T03:13:24;8.57;;;1.52;;
73142;SDS011;61343;53.694;9.988;2022-10-19T03:15:50;9.70;;;1.30;;
73142;SDS011;61343;53.694;9.988;2022-10-19T03:18:15;7.77;;;1.20;;
73142;SDS011;61343;53.694;9.988;2022-10-19T03:20:40;8.87;;;1.20;;
73142;SDS011;61343;53.694;9.988;2022-10-19T03:23:06;8.80;;;1.10;;
73142;SDS011;61343;53.694;9.988;2022-10-19T03:25:31;6.97;;;1.50;;
73142;SDS011;61343;53.694;9.988;2022-10-19T03:27:56;6.07;;;1.33;;
73142;SDS011;61343;53.694;9.988;2022-10-19T03:30:21;7.22;;;1.30;;
73142;SDS011;61343;53.694;9.988;2022-10-19T03:32:47;7.57;;;1.37;;
73142;SDS011;61343;53.694;9.988;2022-10-19T03:35:12;9.33;;;1.37;;
73142;SDS011;61343;53.694;9.988;2022-10-19T03:37:37;5.90;;;1.20;;
73142;SDS011;61343;53.694;9.988;2022-10-19T03:40:02;5.30;;;1.30;;
73142;SDS011;61343;53.694;9.988;2022-10-19T03:42:28;5.73;;;1.20;;
73142;SDS011;61343;53.694;9.988;2022-10-19T03:44:53;4.70;;;1.03;;
73142;SDS011;61343;53.694;9.988;2022-10-19T03:47:19;9.20;;;1.53;;
73142;SDS011;61343;53.694;9.988;2022-10-19T03:49:44;4.80;;;1.20;;
73142;SDS011;61343;53.694;9.988;2022-10-19T03:52:09;5.57;;;1.17;;
73142;SDS011;61343;53.694;9.988;2022-10-19T03:54:35;6.63;;;1.53;;
73142;SDS011;61343;53.694;9.988;2022-10-19T03:57:00;8.30;;;1.30;;
73142;SDS011;61343;53.694;9.988;2022-10-19T03:59:25;5.33;;;1.30;;
73142;SDS011;61343;53.694;9.988;2022-10-19T04:01:51;5.93;;;1.20;;
73142;SDS011;61343;53.694;9.988;2022-10-19T04:04:17;6.85;;;1.20;;
73142;SDS011;61343;53.694;9.988;2022-10-19T04:06:44;5.83;;;1.20;;
73142;SDS011;61343;53.694;9.988;2022-10-19T04:09:12;14.45;;;1.80;;
73142;SDS011;61343;53.694;9.988;2022-10-19T04:11:39;7.63;;;1.35;;
73142;SDS011;61343;53.694;9.988;2022-10-19T04:14:05;8.45;;;1.33;;
73142;SDS011;61343;53.694;9.988;2022-10-19T04:16:31;8.73;;;1.27;;
73142;SDS011;61343;53.694;9.988;2022-10-19T04:18:57;7.05;;;1.25;;
73142;SDS011;61343;53.694;9.988;2022-10-19T04:21:23;5.43;;;1.20;;
73142;SDS011;61343;53.694;9.988;2022-10-19T04:23:58;8.77;;;1.35;;
73142;SDS011;61343;53.694;9.988;2022-10-19T04:26:47;11.13;;;1.73;;
73142;SDS011;61343;53.694;9.988;2022-10-19T04:29:18;9.13;;;1.60;;
73142;SDS011;61343;53.694;9.988;2022-10-19T04:31:45;12.63;;;1.40;;
73142;SDS011;61343;53.694;9.988;2022-10-19T04:34:13;7.70;;;1.63;;
73142;SDS011;61343;53.694;9.988;2022-10-19T04:36:38;8.70;;;1.40;;
73142;SDS011;61343;53.694;9.988;2022-10-19T04:39:04;8.20;;;1.30;;
73142;SDS011;61343;53.694;9.988;2022-10-19T04:41:30;11.32;;;1.52;;
73142;SDS011;61343;53.694;9.988;2022-10-19T04:43:56;8.77;;;1.57;;
73142;SDS011;61343;53.694;9.988;2022-10-19T04:46:24;7.65;;;1.40;;
73142;SDS011;61343;53.694;9.988;2022-10-19T04:48:50;9.32;;;1.63;;
73142;SDS011;61343;53.694;9.988;2022-10-19T04:51:16;11.00;;;1.30;;
73142;SDS011;61343;53.694;9.988;2022-10-19T04:53:42;6.10;;;1.50;;
73142;SDS011;61343;53.694;9.988;2022-10-19T04:56:10;8.80;;;1.20;;
73142;SDS011;61343;53.694;9.988;2022-10-19T04:58:37;10.52;;;1.67;;
73142;SDS011;61343;53.694;9.988;2022-10-19T05:01:16;9.23;;;1.63;;
73142;SDS011;61343;53.694;9.988;2022-10-19T05:03:43;7.78;;;1.20;;
73142;SDS011;61343;53.694;9.988;2022-10-19T05:06:09;9.10;;;1.55;;
73142;SDS011;61343;53.694;9.988;2022-10-19T05:08:36;9.80;;;1.63;;
73142;SDS011;61343;53.694;9.988;2022-10-19T05:11:05;8.38;;;1.30;;
73142;SDS011;61343;53.694;9.988;2022-10-19T05:13:33;8.32;;;1.20;;
73142;SDS011;61343;53.694;9.988;2022-10-19T05:15:59;7.05;;;1.38;;
73142;SDS011;61343;53.694;9.988;2022-10-19T05:18:26;7.37;;;1.30;;
73142;SDS011;61343;53.694;9.988;2022-10-19T05:21:05;10.55;;;1.58;;
73142;SDS011;61343;53.694;9.988;2022-10-19T05:23:34;6.78;;;1.27;;
73142;SDS011;61343;53.694;9.988;2022-10-19T05:26:01;7.50;;;1.47;;
73142;SDS011;61343;53.694;9.988;2022-10-19T05:28:34;7.95;;;1.40;;
73142;SDS011;61343;53.694;9.988;2022-10-19T05:31:11;10.43;;;1.50;;
73142;SDS011;61343;53.694;9.988;2022-10-19T05:33:38;6.87;;;2.00;;
73142;SDS011;61343;53.694;9.988;2022-10-19T05:38:43;9.77;;;1.70;;
73142;SDS011;61343;53.694;9.988;2022-10-19T05:41:09;7.97;;;2.00;;
73142;SDS011;61343;53.694;9.988;2022-10-19T05:43:35;11.93;;;2.78;;
73142;SDS011;61343;53.694;9.988;2022-10-19T05:46:01;5.33;;;1.30;;
73142;SDS011;61343;53.694;9.988;2022-10-19T05:48:31;9.00;;;1.65;;
73142;SDS011;61343;53.694;9.988;2022-10-19T05:51:00;8.27;;;1.53;;
73142;SDS011;61343;53.694;9.988;2022-10-19T05:53:27;8.95;;;1.67;;
73142;SDS011;61343;53.694;9.988;2022-10-19T05:55:53;11.43;;;1.85;;
73142;SDS011;61343;53.694;9.988;2022-10-19T05:58:18;10.50;;;1.50;;
73142;SDS011;61343;53.694;9.988;2022-10-19T06:00:49;13.77;;;2.23;;
73142;SDS011;61343;53.694;9.988;2022-10-19T06:03:15;10.13;;;1.55;;
73142;SDS011;61343;53.694;9.988;2022-10-19T06:05:41;10.70;;;2.22;;
73142;SDS011;61343;53.694;9.988;2022-10-19T06:08:07;6.73;;;1.50;;
73142;SDS011;61343;53.694;9.988;2022-10-19T06:10:32;8.20;;;1.80;;
73142;SDS011;61343;53.694;9.988;2022-10-19T06:12:57;8.70;;;1.90;;
73142;SDS011;61343;53.694;9.988;2022-10-19T06:15:22;10.30;;;2.00;;
73142;SDS011;61343;53.694;9.988;2022-10-19T06:17:48;9.70;;;1.60;;
73142;SDS011;61343;53.694;9.988;2022-10-19T06:20:13;10.70;;;1.77;;
73142;SDS011;61343;53.694;9.988;2022-10-19T06:22:38;12.90;;;2.63;;
73142;SDS011;61343;53.694;9.988;2022-10-19T06:25:04;10.97;;;2.13;;
73142;SDS011;61343;53.694;9.988;2022-10-19T06:27:30;6.88;;;1.42;;
73142;SDS011;61343;53.694;9.988;2022-10-19T06:29:56;10.32;;;1.58;;
73142;SDS011;61343;53.694;9.988;2022-10-19T06:32:21;12.77;;;1.87;;
73142;SDS011;61343;53.694;9.988;2022-10-19T06:34:46;11.43;;;1.70;;
73142;SDS011;61343;53.694;9.988;2022-10-19T06:37:11;7.13;;;1.63;;
73142;SDS011;61343;53.694;9.988;2022-10-19T06:39:37;8.23;;;1.53;;
73142;SDS011;61343;53.694;9.988;2022-10-19T06:42:02;7.57;;;1.80;;
73142;SDS011;61343;53.694;9.988;2022-10-19T06:44:27;11.97;;;1.90;;
73142;SDS011;61343;53.694;9.988;2022-10-19T06:46:52;7.60;;;1.90;;
73142;SDS011;61343;53.694;9.988;2022-10-19T06:49:18;8.13;;;1.67;;
73142;SDS011;61343;53.694;9.988;2022-10-19T06:51:43;8.23;;;2.23;;
73142;SDS011;61343;53.694;9.988;2022-10-19T06:54:08;8.95;;;1.80;;
73142;SDS011;61343;53.694;9.988;2022-10-19T06:56:33;9.67;;;2.17;;
73142;SDS011;61343;53.694;9.988;2022-10-19T06:58:59;7.80;;;1.50;;
73142;SDS011;61343;53.694;9.988;2022-10-19T07:01:24;9.33;;;1.67;;
73142;SDS011;61343;53.694;9.988;2022-10-19T07:03:50;11.00;;;1.77;;
73142;SDS011;61343;53.694;9.988;2022-10-19T07:06:16;9.38;;;1.65;;
73142;SDS011;61343;53.694;9.988;2022-10-19T07:08:42;10.50;;;1.85;;
73142;SDS011;61343;53.694;9.988;2022-10-19T07:11:09;9.87;;;1.80;;
73142;SDS011;61343;53.694;9.988;2022-10-19T07:13:36;15.05;;;2.10;;
73142;SDS011;61343;53.694;9.988;2022-10-19T07:16:06;12.27;;;1.92;;
73142;SDS011;61343;53.694;9.988;2022-10-19T07:18:35;9.43;;;1.70;;
73142;SDS011;61343;53.694;9.988;2022-10-19T07:21:02;7.53;;;1.38;;
73142;SDS011;61343;53.694;9.988;2022-10-19T07:23:30;9.68;;;1.77;;
73142;SDS011;61343;53.694;9.988;2022-10-19T07:25:58;7.13;;;1.60;;
73142;SDS011;61343;53.694;9.988;2022-10-19T07:28:28;11.10;;;2.08;;
73142;SDS011;61343;53.694;9.988;2022-10-19T07:30:55;10.13;;;2.20;;
73142;SDS011;61343;53.694;9.988;2022-10-19T07:33:20;8.68;;;1.65;;
73142;SDS011;61343;53.694;9.988;2022-10-19T07:35:46;8.75;;;1.83;;
73142;SDS011;61343;53.694;9.988;2022-10-19T07:38:11;13.80;;;2.13;;
73142;SDS011;61343;53.694;9.988;2022-10-19T07:40:37;15.40;;;2.57;;
73142;SDS011;61343;53.694;9.988;2022-10-19T07:43:02;11.13;;;1.90;;
73142;SDS011;61343;53.694;9.988;2022-10-19T07:45:27;11.40;;;1.90;;
73142;SDS011;61343;53.694;9.988;2022-10-19T07:47:53;10.35;;;1.73;;
73142;SDS011;61343;53.694;9.988;2022-10-19T07:50:19;9.50;;;2.03;;
73142;SDS011;61343;53.694;9.988;2022-10-19T07:52:44;9.47;;;1.53;;
73142;SDS011;61343;53.694;9.988;2022-10-19T07:55:10;11.67;;;2.23;;
73142;SDS011;61343;53.694;9.988;2022-10-19T07:57:35;11.87;;;1.97;;
73142;SDS011;61343;53.694;9.988;2022-10-19T08:00:00;11.47;;;2.07;;
73142;SDS011;61343;53.694;9.988;2022-10-19T08:02:26;9.60;;;2.57;;
73142;SDS011;61343;53.694;9.988;2022-10-19T08:04:51;12.20;;;1.93;;
73142;SDS011;61343;53.694;9.988;2022-10-19T08:07:16;11.77;;;2.10;;
73142;SDS011;61343;53.694;9.988;2022-10-19T08:09:41;8.17;;;1.50;;
73142;SDS011;61343;53.694;9.988;2022-10-19T08:12:07;6.93;;;1.33;;
73142;SDS011;61343;53.694;9.988;2022-10-19T08:14:32;9.80;;;1.90;;
73142;SDS011;61343;53.694;9.988;2022-10-19T08:16:58;11.37;;;1.83;;
73142;SDS011;61343;53.694;9.988;2022-10-19T08:19:24;6.90;;;1.40;;
73142;SDS011;61343;53.694;9.988;2022-10-19T08:21:49;9.93;;;1.70;;
73142;SDS011;61343;53.694;9.988;2022-10-19T08:24:16;11.10;;;1.70;;
73142;SDS011;61343;53.694;9.988;2022-10-19T08:26:42;10.65;;;1.70;;
73142;SDS011;61343;53.694;9.988;2022-10-19T08:29:10;7.15;;;1.60;;
73142;SDS011;61343;53.694;9.988;2022-10-19T08:31:38;8.45;;;2.08;;
73142;SDS011;61343;53.694;9.988;2022-10-19T08:34:04;9.40;;;1.67;;
73142;SDS011;61343;53.694;9.988;2022-10-19T08:36:29;11.70;;;1.90;;
73142;SDS011;61343;53.694;9.988;2022-10-19T08:38:56;7.30;;;1.38;;
73142;SDS011;61343;53.694;9.988;2022-10-19T08:41:32;9.63;;;2.00;;
73142;SDS011;61343;53.694;9.988;2022-10-19T08:49:30;9.15;;;1.98;;
73142;SDS011;61343;53.694;9.988;2022-10-19T08:51:57;12.03;;;1.90;;
73142;SDS011;61343;53.694;9.988;2022-10-19T08:54:31;9.52;;;1.70;;
73142;SDS011;61343;53.694;9.988;2022-10-19T08:57:19;9.23;;;1.80;;
73142;SDS011;61343;53.694;9.988;2022-10-19T09:00:02;11.85;;;2.22;;
73142;SDS011;61343;53.694;9.988;2022-10-19T09:02:51;13.45;;;2.10;;
73142;SDS011;61343;53.694;9.988;2022-10-19T09:08:17;9.40;;;1.80;;
73142;SDS011;61343;53.694;9.988;2022-10-19T09:10:45;9.32;;;2.20;;
73142;SDS011;61343;53.694;9.988;2022-10-19T09:15:56;5.22;;;1.58;;
73142;SDS011;61343;53.694;9.988;2022-10-19T09:18:28;9.60;;;2.00;;
73142;SDS011;61343;53.694;9.988;2022-10-19T09:23:53;7.63;;;1.58;;
73142;SDS011;61343;53.694;9.988;2022-10-19T09:26:24;7.40;;;1.60;;
73142;SDS011;61343;53.694;9.988;2022-10-19T09:31:31;8.02;;;2.17;;
73142;SDS011;61343;53.694;9.988;2022-10-19T09:34:41;6.37;;;1.63;;
73142;SDS011;61343;53.694;9.988;2022-10-19T09:36:51;9.77;;;2.00;;
73142;SDS011;61343;53.694;9.988;2022-10-19T09:39:20;9.40;;;1.80;;
73142;SDS011;61343;53.694;9.988;2022-10-19T09:41:55;9.73;;;1.90;;
73142;SDS011;61343;53.694;9.988;2022-10-19T09:44:23;7.22;;;1.63;;
73142;SDS011;61343;53.694;9.988;2022-10-19T09:49:39;11.32;;;1.92;;
73142;SDS011;61343;53.694;9.988;2022-10-19T09:52:24;6.53;;;1.57;;
73142;SDS011;61343;53.694;9.988;2022-10-19T09:55:04;8.95;;;1.65;;
73142;SDS011;61343;53.694;9.988;2022-10-19T09:57:31;6.47;;;1.60;;
73142;SDS011;61343;53.694;9.988;2022-10-19T09:59:57;7.18;;;1.73;;
73142;SDS011;61343;53.694;9.988;2022-10-19T10:02:32;6.30;;;1.70;;
73142;SDS011;61343;53.694;9.988;2022-10-19T10:05:05;7.40;;;1.83;;
73142;SDS011;61343;53.694;9.988;2022-10-19T10:07:35;8.27;;;1.50;;
73142;SDS011;61343;53.694;9.988;2022-10-19T10:10:09;7.28;;;1.40;;
73142;SDS011;61343;53.694;9.988;2022-10-19T10:13:16;8.20;;;1.73;;
73142;SDS011;61343;53.694;9.988;2022-10-19T10:15:48;7.15;;;1.60;;
73142;SDS011;61343;53.694;9.988;2022-10-19T10:18:18;12.03;;;2.20;;
73142;SDS011;61343;53.694;9.988;2022-10-19T10:21:00;7.70;;;1.70;;
73142;SDS011;61343;53.694;9.988;2022-10-19T10:23:34;9.10;;;1.73;;
73142;SDS011;61343;53.694;9.988;2022-10-19T10:26:00;5.83;;;1.80;;
73142;SDS011;61343;53.694;9.988;2022-10-19T10:28:29;8.60;;;2.10;;
73142;SDS011;61343;53.694;9.988;2022-10-19T10:31:02;6.65;;;1.77;;
73142;SDS011;61343;53.694;9.988;2022-10-19T10:33:30;8.93;;;1.95;;
73142;SDS011;61343;53.694;9.988;2022-10-19T10:36:00;7.83;;;1.60;;
73142;SDS011;61343;53.694;9.988;2022-10-19T10:38:33;7.38;;;1.80;;
73142;SDS011;61343;53.694;9.988;2022-10-19T10:41:04;8.23;;;1.83;;
73142;SDS011;61343;53.694;9.988;2022-10-19T10:43:36;7.47;;;1.83;;
73142;SDS011;61343;53.694;9.988;2022-10-19T10:46:13;6.65;;;1.90;;
73142;SDS011;61343;53.694;9.988;2022-10-19T10:48:43;8.93;;;1.97;;
73142;SDS011;61343;53.694;9.988;2022-10-19T10:51:19;8.93;;;1.80;;
73142;SDS011;61343;53.694;9.988;2022-10-19T10:59:25;7.65;;;1.92;;
73142;SDS011;61343;53.694;9.988;2022-10-19T11:04:40;7.25;;;1.60;;
73142;SDS011;61343;53.694;9.988;2022-10-19T11:07:20;6.35;;;1.58;;
73142;SDS011;61343;53.694;9.988;2022-10-19T11:09:50;5.97;;;1.42;;
73142;SDS011;61343;53.694;9.988;2022-10-19T11:12:30;7.57;;;1.60;;
73142;SDS011;61343;53.694;9.988;2022-10-19T11:20:37;5.35;;;1.50;;
73142;SDS011;61343;53.694;9.988;2022-10-19T11:23:31;4.30;;;1.30;;
73142;SDS011;61343;53.694;9.988;2022-10-19T11:26:17;8.57;;;1.60;;
73142;SDS011;61343;53.694;9.988;2022-10-19T11:31:29;6.70;;;1.50;;
73142;SDS011;61343;53.694;9.988;2022-10-19T11:36:49;8.25;;;1.40;;
73142;SDS011;61343;53.694;9.988;2022-10-19T11:39:30;4.75;;;1.40;;
73142;SDS011;61343;53.694;9.988;2022-10-19T11:42:24;5.97;;;1.30;;
73142;SDS011;61343;53.694;9.988;2022-10-19T11:47:57;5.88;;;1.88;;
73142;SDS011;61343;53.694;9.988;2022-10-19T11:58:12;5.17;;;1.30;;
73142;SDS011;61343;53.694;9.988;2022-10-19T12:01:09;5.87;;;1.37;;
73142;SDS011;61343;53.694;9.988;2022-10-19T12:09:23;6.93;;;1.10;;
73142;SDS011;61343;53.694;9.988;2022-10-19T12:12:15;4.38;;;1.30;;
73142;SDS011;61343;53.694;9.988;2022-10-19T12:14:54;6.90;;;1.27;;
73142;SDS011;61343;53.694;9.988;2022-10-19T12:17:27;4.50;;;1.20;;
73142;SDS011;61343;53.694;9.988;2022-10-19T12:20:01;4.13;;;1.20;;
73142;SDS011;61343;53.694;9.988;2022-10-19T12:22:30;4.47;;;1.20;;
73142;SDS011;61343;53.694;9.988;2022-10-19T12:24:59;5.20;;;1.23;;
73142;SDS011;61343;53.694;9.988;2022-10-19T12:27:29;4.90;;;1.30;;
73142;SDS011;61343;53.694;9.988;2022-10-19T12:30:13;4.32;;;1.13;;
73142;SDS011;61343;53.694;9.988;2022-10-19T12:32:59;4.35;;;1.20;;
73142;SDS011;61343;53.694;9.988;2022-10-19T12:39:02;5.43;;;1.20;;
73142;SDS011;61343;53.694;9.988;2022-10-19T12:44:49;5.97;;;1.30;;
73142;SDS011;61343;53.694;9.988;2022-10-19T12:47:34;4.43;;;1.40;;
73142;SDS011;61343;53.694;9.988;2022-10-19T12:50:00;7.03;;;1.30;;
73142;SDS011;61343;53.694;9.988;2022-10-19T12:55:22;5.38;;;1.20;;
73142;SDS011;61343;53.694;9.988;2022-10-19T12:58:23;5.53;;;1.30;;
73142;SDS011;61343;53.694;9.988;2022-10-19T13:00:56;4.60;;;1.20;;
73142;SDS011;61343;53.694;9.988;2022-10-19T13:03:23;7.22;;;1.50;;
73142;SDS011;61343;53.694;9.988;2022-10-19T13:05:55;4.43;;;1.10;;
73142;SDS011;61343;53.694;9.988;2022-10-19T13:08:32;4.32;;;1.10;;
73142;SDS011;61343;53.694;9.988;2022-10-19T13:11:08;4.77;;;1.00;;
73142;SDS011;61343;53.694;9.988;2022-10-19T13:16:32;4.50;;;1.00;;
73142;SDS011;61343;53.694;9.988;2022-10-19T13:21:44;4.13;;;1.00;;
73142;SDS011;61343;53.694;9.988;2022-10-19T13:29:26;5.97;;;1.23;;
73142;SDS011;61343;53.694;9.988;2022-10-19T13:40:32;2.90;;;0.80;;
73142;SDS011;61343;53.694;9.988;2022-10-19T13:42:59;5.35;;;1.02;;
73142;SDS011;61343;53.694;9.988;2022-10-19T13:45:25;5.00;;;1.07;;
73142;SDS011;61343;53.694;9.988;2022-10-19T13:47:51;3.65;;;1.00;;
73142;SDS011;61343;53.694;9.988;2022-10-19T13:50:26;4.10;;;1.20;;
73142;SDS011;61343;53.694;9.988;2022-10-19T13:58:19;5.80;;;1.20;;
73142;SDS011;61343;53.694;9.988;2022-10-19T14:03:58;4.13;;;1.00;;
73142;SDS011;61343;53.694;9.988;2022-10-19T14:06:53;3.37;;;1.00;;
73142;SDS011;61343;53.694;9.988;2022-10-19T14:14:49;3.92;;;0.80;;
73142;SDS011;61343;53.694;9.988;2022-10-19T14:17:21;3.72;;;0.90;;
73142;SDS011;61343;53.694;9.988;2022-10-19T14:19:50;3.30;;;0.80;;
73142;SDS011;61343;53.694;9.988;2022-10-19T14:25:00;3.33;;;1.00;;
73142;SDS011;61343;53.694;9.988;2022-10-19T14:27:28;3.78;;;0.80;;
73142;SDS011;61343;53.694;9.988;2022-10-19T14:29:54;3.03;;;0.93;;
73142;SDS011;61343;53.694;9.988;2022-10-19T14:32:24;2.80;;;0.80;;
73142;SDS011;61343;53.694;9.988;2022-10-19T14:34:51;3.70;;;0.90;;
73142;SDS011;61343;53.694;9.988;2022-10-19T14:37:19;2.60;;;0.70;;
73142;SDS011;61343;53.694;9.988;2022-10-19T14:42:23;2.83;;;0.80;;
73142;SDS011;61343;53.694;9.988;2022-10-19T14:45:00;3.88;;;0.90;;
73142;SDS011;61343;53.694;9.988;2022-10-19T14:47:26;3.33;;;0.90;;
73142;SDS011;61343;53.694;9.988;2022-10-19T14:49:51;3.10;;;0.90;;
73142;SDS011;61343;53.694;9.988;2022-10-19T14:52:35;4.10;;;0.80;;
73142;SDS011;61343;53.694;9.988;2022-10-19T14:55:24;3.20;;;1.00;;
73142;SDS011;61343;53.694;9.988;2022-10-19T14:57:54;3.38;;;0.90;;
73142;SDS011;61343;53.694;9.988;2022-10-19T15:00:21;2.80;;;0.80;;
73142;SDS011;61343;53.694;9.988;2022-10-19T15:02:58;3.17;;;0.80;;
73142;SDS011;61343;53.694;9.988;2022-10-19T15:05:28;3.42;;;1.05;;
73142;SDS011;61343;53.694;9.988;2022-10-19T15:07:57;3.00;;;0.90;;
73142;SDS011;61343;53.694;9.988;2022-10-19T15:10:50;3.45;;;0.90;;
73142;SDS011;61343;53.694;9.988;2022-10-19T15:13:22;3.50;;;0.90;;
73142;SDS011;61343;53.694;9.988;2022-10-19T15:15:51;3.00;;;1.00;;
73142;SDS011;61343;53.694;9.988;2022-10-19T15:18:17;2.95;;;0.90;;
73142;SDS011;61343;53.694;9.988;2022-10-19T15:20:45;2.60;;;0.80;;
73142;SDS011;61343;53.694;9.988;2022-10-19T15:23:40;2.85;;;1.00;;
73142;SDS011;61343;53.694;9.988;2022-10-19T15:28:51;3.28;;;1.10;;
73142;SDS011;61343;53.694;9.988;2022-10-19T15:31:19;3.30;;;1.00;;
73142;SDS011;61343;53.694;9.988;2022-10-19T15:33:52;3.40;;;0.90;;
73142;SDS011;61343;53.694;9.988;2022-10-19T15:36:19;3.40;;;0.90;;
73142;SDS011;61343;53.694;9.988;2022-10-19T15:38:47;3.70;;;1.00;;
73142;SDS011;61343;53.694;9.988;2022-10-19T15:41:25;3.45;;;0.90;;
73142;SDS011;61343;53.694;9.988;2022-10-19T15:43:53;4.10;;;0.90;;
73142;SDS011;61343;53.694;9.988;2022-10-19T15:46:22;4.53;;;0.90;;
73142;SDS011;61343;53.694;9.988;2022-10-19T15:48:53;3.10;;;0.90;;
73142;SDS011;61343;53.694;9.988;2022-10-19T15:56:17;3.67;;;1.10;;
73142;SDS011;61343;53.694;9.988;2022-10-19T15:58:42;3.40;;;1.00;;
73142;SDS011;61343;53.694;9.988;2022-10-19T16:01:13;7.40;;;1.30;;
73142;SDS011;61343;53.694;9.988;2022-10-19T16:03:41;3.00;;;0.90;;
73142;SDS011;61343;53.694;9.988;2022-10-19T16:06:06;3.30;;;0.90;;
73142;SDS011;61343;53.694;9.988;2022-10-19T16:08:32;3.30;;;0.90;;
73142;SDS011;61343;53.694;9.988;2022-10-19T16:10:57;4.03;;;1.10;;
73142;SDS011;61343;53.694;9.988;2022-10-19T16:13:22;4.17;;;1.00;;
73142;SDS011;61343;53.694;9.988;2022-10-19T16:15:48;3.60;;;1.07;;
73142;SDS011;61343;53.694;9.988;2022-10-19T16:18:14;3.20;;;1.05;;
73142;SDS011;61343;53.694;9.988;2022-10-19T16:20:40;3.50;;;0.97;;
73142;SDS011;61343;53.694;9.988;2022-10-19T16:23:06;3.72;;;1.20;;
73142;SDS011;61343;53.694;9.988;2022-10-19T16:25:32;3.03;;;0.90;;
73142;SDS011;61343;53.694;9.988;2022-10-19T16:27:58;3.20;;;1.10;;
73142;SDS011;61343;53.694;9.988;2022-10-19T16:30:23;4.10;;;1.20;;
73142;SDS011;61343;53.694;9.988;2022-10-19T16:32:48;4.20;;;1.20;;
73142;SDS011;61343;53.694;9.988;2022-10-19T16:35:14;4.17;;;1.30;;
73142;SDS011;61343;53.694;9.988;2022-10-19T16:37:39;3.70;;;1.30;;
73142;SDS011;61343;53.694;9.988;2022-10-19T16:40:05;4.07;;;1.50;;
73142;SDS011;61343;53.694;9.988;2022-10-19T16:42:31;4.32;;;1.80;;
73142;SDS011;61343;53.694;9.988;2022-10-19T16:44:56;4.40;;;1.70;;
73142;SDS011;61343;53.694;9.988;2022-10-19T16:47:22;5.07;;;1.75;;
73142;SDS011;61343;53.694;9.988;2022-10-19T16:49:47;4.43;;;1.70;;
73142;SDS011;61343;53.694;9.988;2022-10-19T16:52:20;3.77;;;1.60;;
73142;SDS011;61343;53.694;9.988;2022-10-19T16:54:45;3.97;;;1.53;;
73142;SDS011;61343;53.694;9.988;2022-10-19T16:57:11;3.67;;;1.47;;
73142;SDS011;61343;53.694;9.988;2022-10-19T16:59:36;5.87;;;1.60;;
73142;SDS011;61343;53.694;9.988;2022-10-19T17:02:01;4.30;;;1.60;;
73142;SDS011;61343;53.694;9.988;2022-10-19T17:04:26;5.43;;;1.70;;
73142;SDS011;61343;53.694;9.988;2022-10-19T17:06:52;8.43;;;1.93;;
73142;SDS011;61343;53.694;9.988;2022-10-19T17:09:17;4.73;;;1.80;;
73142;SDS011;61343;53.694;9.988;2022-10-19T17:11:42;4.53;;;1.70;;
73142;SDS011;61343;53.694;9.988;2022-10-19T17:14:10;5.03;;;1.90;;
73142;SDS011;61343;53.694;9.988;2022-10-19T17:16:36;6.20;;;1.85;;
73142;SDS011;61343;53.694;9.988;2022-10-19T17:19:04;5.53;;;1.77;;